Time;durP1;ratioP1;P1;durP2;ratioP2;P2;SDS_P1;SDS_P2;PMS_P1;PMS_P2;Temp;Humidity;BMP_temperature;BMP_pressure;BME280_temperature;BME280_humidity;BME280_pressure;Samples;Min_cycle;Max_cycle;Signal;HPM_P1;HPM_P2
2022/12/31 00:01:11;;;;;;;1.50;1.40;;;14.30;99.90;;;;;;5005876;28;20144;-72
2022/12/31 00:03:38;;;;;;;1.38;1.27;;;14.20;99.90;;;;;;5011578;28;20025;-71
2022/12/31 00:06:28;;;;;;;2.75;1.45;;;14.20;99.90;;;;;;4993933;28;20032;-71
2022/12/31 00:08:56;;;;;;;1.52;1.33;;;14.20;99.90;;;;;;5012338;28;20014;-71
2022/12/31 00:11:23;;;;;;;2.00;1.90;;;14.30;99.90;;;;;;5007310;28;20095;-72
2022/12/31 00:13:50;;;;;;;2.30;1.80;;;14.30;99.90;;;;;;5005246;28;20029;-72
2022/12/31 00:16:20;;;;;;;1.98;1.70;;;14.20;99.90;;;;;;5012894;28;20026;-71
2022/12/31 00:18:49;;;;;;;2.47;1.60;;;14.30;99.90;;;;;;4992586;28;20309;-72
2022/12/31 00:21:15;;;;;;;1.60;1.50;;;14.20;99.90;;;;;;4990852;28;20033;-72
2022/12/31 00:23:41;;;;;;;2.97;1.60;;;14.20;99.90;;;;;;5013743;28;20492;-72
2022/12/31 00:26:12;;;;;;;1.40;1.20;;;14.20;99.90;;;;;;5014884;28;20029;-72
2022/12/31 00:28:39;;;;;;;1.95;1.20;;;14.20;99.90;;;;;;4992676;28;20486;-72
2022/12/31 00:31:12;;;;;;;2.17;1.30;;;14.20;99.90;;;;;;5010022;28;20084;-72
2022/12/31 00:33:39;;;;;;;1.88;1.77;;;14.30;99.90;;;;;;5004677;28;20045;-72
2022/12/31 00:36:06;;;;;;;2.65;2.42;;;14.30;99.90;;;;;;5009594;28;20049;-72
2022/12/31 00:38:32;;;;;;;3.63;2.50;;;14.30;99.90;;;;;;5010293;28;20033;-72
2022/12/31 00:40:57;;;;;;;4.10;2.80;;;14.30;99.90;;;;;;5009563;28;20041;-72
2022/12/31 00:43:23;;;;;;;2.75;2.47;;;14.30;99.90;;;;;;5014534;28;20473;-72
2022/12/31 00:45:48;;;;;;;3.92;2.75;;;14.30;99.90;;;;;;5006102;28;20034;-72
2022/12/31 00:48:14;;;;;;;2.15;1.95;;;14.40;99.90;;;;;;5009855;28;20044;-72
2022/12/31 00:50:39;;;;;;;2.20;2.00;;;14.30;99.90;;;;;;5013445;28;20029;-72
2022/12/31 00:53:05;;;;;;;6.20;2.33;;;14.30;99.90;;;;;;5013478;28;20080;-73
2022/12/31 00:55:30;;;;;;;3.20;2.25;;;14.30;99.90;;;;;;4987340;28;20034;-72
2022/12/31 00:57:56;;;;;;;3.45;2.10;;;14.30;99.90;;;;;;5010601;28;20026;-72
2022/12/31 01:00:22;;;;;;;3.40;2.40;;;14.30;99.90;;;;;;4991786;28;20088;-72
2022/12/31 01:02:47;;;;;;;2.05;1.88;;;14.30;99.90;;;;;;5015601;28;20030;-72
2022/12/31 01:05:13;;;;;;;2.13;1.92;;;14.20;99.90;;;;;;5018297;28;20022;-72
2022/12/31 01:07:38;;;;;;;5.85;1.90;;;14.30;99.90;;;;;;4992041;28;20529;-72
2022/12/31 01:10:05;;;;;;;1.75;1.60;;;14.30;99.90;;;;;;5014001;28;20026;-72
2022/12/31 01:12:30;;;;;;;1.30;1.20;;;14.30;99.90;;;;;;5016636;28;20469;-72
2022/12/31 01:14:56;;;;;;;2.40;1.65;;;14.30;99.90;;;;;;4995819;28;20037;-72
2022/12/31 01:17:21;;;;;;;2.22;1.92;;;14.40;99.90;;;;;;5011096;28;20462;-72
2022/12/31 01:19:47;;;;;;;1.63;1.52;;;14.40;99.90;;;;;;5016157;28;20046;-72
2022/12/31 01:22:13;;;;;;;0.82;0.82;;;14.40;99.90;;;;;;5009358;28;20028;-72
2022/12/31 01:24:38;;;;;;;1.38;1.25;;;14.30;99.90;;;;;;5013789;28;20483;-72
2022/12/31 01:27:04;;;;;;;1.33;0.82;;;14.40;99.90;;;;;;5008453;28;20041;-72
2022/12/31 01:29:29;;;;;;;2.28;0.88;;;14.40;99.90;;;;;;5017421;28;20025;-75
2022/12/31 01:31:55;;;;;;;0.88;0.82;;;14.50;99.90;;;;;;4996682;28;20042;-72
2022/12/31 01:34:21;;;;;;;1.15;0.70;;;14.40;99.90;;;;;;5016670;28;20033;-72
2022/12/31 01:36:46;;;;;;;1.05;0.73;;;14.50;99.90;;;;;;5011255;28;20381;-72
2022/12/31 01:39:12;;;;;;;1.15;0.50;;;14.50;99.90;;;;;;5014201;28;20113;-71
2022/12/31 01:41:41;;;;;;;0.60;0.60;;;14.50;99.90;;;;;;5016037;28;20142;-72
2022/12/31 01:44:13;;;;;;;0.88;0.68;;;14.60;99.90;;;;;;4993838;28;20096;-72
2022/12/31 01:46:46;;;;;;;1.88;0.45;;;14.60;99.90;;;;;;5007173;28;20048;-72
2022/12/31 01:49:43;;;;;;;1.27;0.60;;;14.60;99.90;;;;;;5015381;28;20021;-72
2022/12/31 01:52:35;;;;;;;0.30;0.30;;;14.70;99.90;;;;;;5017083;28;20034;-72
2022/12/31 01:55:08;;;;;;;1.30;0.40;;;14.70;99.90;;;;;;5006847;28;20534;-72
2022/12/31 01:57:35;;;;;;;1.58;0.77;;;14.60;99.90;;;;;;5013389;28;20571;-72
2022/12/31 02:00:03;;;;;;;0.82;0.50;;;14.60;99.90;;;;;;5015100;28;20044;-72
2022/12/31 02:02:28;;;;;;;2.50;0.70;;;14.60;99.90;;;;;;5011250;28;20029;-73
2022/12/31 02:04:56;;;;;;;1.48;0.90;;;14.50;99.90;;;;;;5016122;28;20026;-73
2022/12/31 02:07:22;;;;;;;0.75;0.70;;;14.60;99.90;;;;;;5016527;28;20496;-74
2022/12/31 02:09:49;;;;;;;3.38;0.40;;;14.60;99.90;;;;;;5016280;28;20029;-73
2022/12/31 02:12:14;;;;;;;0.60;0.20;;;14.50;99.90;;;;;;5015034;28;20044;-73
2022/12/31 02:14:47;;;;;;;1.58;0.30;;;14.40;99.90;;;;;;5008653;28;20545;-73
2022/12/31 02:17:30;;;;;;;3.40;0.40;;;14.40;99.90;;;;;;5017449;28;20041;-73
2022/12/31 02:20:14;;;;;;;0.50;0.40;;;14.40;99.90;;;;;;5014189;28;20046;-73
2022/12/31 02:23:10;;;;;;;1.05;0.60;;;14.40;99.90;;;;;;5009910;28;20029;-73
2022/12/31 02:26:09;;;;;;;0.90;0.50;;;14.50;99.90;;;;;;5014142;28;20033;-73
2022/12/31 02:28:50;;;;;;;2.35;0.77;;;14.40;99.90;;;;;;5013376;28;20030;-73
2022/12/31 02:32:07;;;;;;;0.77;0.40;;;14.40;99.90;;;;;;5014616;28;20033;-73
2022/12/31 02:34:38;;;;;;;1.20;0.60;;;14.30;99.90;;;;;;4968153;28;20503;-73
2022/12/31 02:37:09;;;;;;;0.40;0.30;;;14.40;99.90;;;;;;5016463;28;20477;-73
2022/12/31 02:39:36;;;;;;;1.60;0.47;;;14.30;99.90;;;;;;4992167;28;20109;-74
2022/12/31 02:42:02;;;;;;;0.10;0.10;;;14.30;99.90;;;;;;4993657;28;20030;-72
2022/12/31 02:44:28;;;;;;;0.80;0.20;;;14.30;99.90;;;;;;4995049;28;20485;-73
2022/12/31 02:47:44;;;;;;;0.22;0.10;;;14.30;99.90;;;;;;5015879;28;20041;-73
2022/12/31 02:50:21;;;;;;;2.97;0.20;;;14.30;99.90;;;;;;4949413;28;20058;-73
2022/12/31 02:52:56;;;;;;;0.40;0.20;;;14.30;99.90;;;;;;5001440;28;20481;-73
2022/12/31 02:56:09;;;;;;;0.90;0.20;;;14.30;99.90;;;;;;5011909;28;20030;-73
2022/12/31 03:04:32;;;;;;;0.40;0.10;;;14.30;99.90;;;;;;4980715;28;20033;-73
2022/12/31 03:07:09;;;;;;;0.30;0.30;;;14.30;99.90;;;;;;5007928;28;20026;-73
2022/12/31 03:09:36;;;;;;;1.40;0.20;;;14.30;99.90;;;;;;5013464;28;20095;-73
2022/12/31 03:14:48;;;;;;;1.48;0.30;;;14.40;99.90;;;;;;5012303;28;20554;-73
2022/12/31 03:17:14;;;;;;;2.55;0.60;;;14.40;99.90;;;;;;5014495;28;20108;-73
2022/12/31 03:22:26;;;;;;;1.58;0.40;;;14.40;99.90;;;;;;5005665;28;20631;-73
2022/12/31 03:27:41;;;;;;;1.27;0.77;;;14.40;99.90;;;;;;5015999;28;20076;-73
2022/12/31 03:30:08;;;;;;;4.03;0.80;;;14.40;99.90;;;;;;5013328;28;20596;-73
2022/12/31 03:32:33;;;;;;;0.75;0.75;;;14.40;99.90;;;;;;5014821;28;20033;-73
2022/12/31 03:34:59;;;;;;;2.42;1.30;;;14.40;99.90;;;;;;5015035;28;20023;-73
2022/12/31 03:37:24;;;;;;;3.70;1.60;;;14.40;99.90;;;;;;5007716;28;20472;-73
2022/12/31 03:39:50;;;;;;;1.50;0.90;;;14.50;99.90;;;;;;5012440;28;20029;-73
2022/12/31 03:42:16;;;;;;;3.28;1.10;;;14.40;99.90;;;;;;5017566;28;20025;-73
2022/12/31 03:44:41;;;;;;;2.30;0.95;;;14.50;99.90;;;;;;5013670;28;20052;-73
2022/12/31 03:47:07;;;;;;;1.92;0.80;;;14.50;99.90;;;;;;5012108;28;20030;-73
2022/12/31 03:49:32;;;;;;;3.28;1.67;;;14.50;99.90;;;;;;5004503;28;20439;-74
2022/12/31 03:51:58;;;;;;;5.65;1.20;;;14.50;99.90;;;;;;5012379;28;20097;-73
2022/12/31 03:54:24;;;;;;;5.32;1.17;;;14.60;99.90;;;;;;5003478;28;20030;-73
2022/12/31 03:56:49;;;;;;;1.52;1.10;;;14.60;99.90;;;;;;5013064;28;20030;-73
2022/12/31 03:59:15;;;;;;;2.92;0.85;;;14.60;99.90;;;;;;4992099;28;20397;-73
2022/12/31 04:01:40;;;;;;;3.33;0.90;;;14.60;99.90;;;;;;5007505;28;20092;-73
2022/12/31 04:04:06;;;;;;;3.63;0.82;;;14.70;99.90;;;;;;5000211;28;20018;-73
2022/12/31 04:06:31;;;;;;;1.80;0.75;;;14.70;99.90;;;;;;5009439;28;20453;-73
2022/12/31 04:08:59;;;;;;;4.05;0.93;;;14.70;99.90;;;;;;5008055;28;20018;-73
2022/12/31 04:11:25;;;;;;;2.72;0.52;;;14.70;99.90;;;;;;5007047;28;20022;-73
2022/12/31 04:13:50;;;;;;;4.53;1.13;;;14.70;99.90;;;;;;5011158;28;20033;-73
2022/12/31 04:16:16;;;;;;;2.58;0.80;;;14.70;99.90;;;;;;5006248;28;20486;-73
2022/12/31 04:18:42;;;;;;;3.42;0.70;;;14.70;99.90;;;;;;5012214;28;20030;-73
2022/12/31 04:21:07;;;;;;;2.88;0.90;;;14.70;99.90;;;;;;5004405;28;20037;-73
2022/12/31 04:23:33;;;;;;;2.88;0.60;;;14.80;99.90;;;;;;5010565;28;20061;-73
2022/12/31 04:25:58;;;;;;;4.40;0.80;;;14.80;99.90;;;;;;5001218;28;20034;-73
2022/12/31 04:28:24;;;;;;;3.65;1.08;;;14.80;99.90;;;;;;4992138;28;20027;-73
2022/12/31 04:30:49;;;;;;;1.80;0.73;;;14.80;99.90;;;;;;5009802;28;20033;-72
2022/12/31 04:33:15;;;;;;;5.28;0.93;;;14.90;99.90;;;;;;5009677;28;20053;-72
2022/12/31 04:35:41;;;;;;;4.85;0.90;;;14.80;99.90;;;;;;5005509;28;20064;-73
2022/12/31 04:38:06;;;;;;;6.32;0.80;;;14.90;99.90;;;;;;5003739;28;20027;-73
2022/12/31 04:40:32;;;;;;;2.78;0.60;;;15.00;99.90;;;;;;5006387;28;20103;-72
2022/12/31 04:42:57;;;;;;;1.33;0.68;;;15.00;99.90;;;;;;5008358;28;20029;-72
2022/12/31 04:45:23;;;;;;;3.83;0.60;;;15.10;99.90;;;;;;5008521;28;20167;-73
2022/12/31 04:47:48;;;;;;;1.90;0.68;;;15.00;99.90;;;;;;5004286;28;20033;-72
2022/12/31 04:50:14;;;;;;;2.33;0.68;;;15.00;99.90;;;;;;5005293;28;20485;-73
2022/12/31 04:52:40;;;;;;;3.72;0.77;;;15.10;99.90;;;;;;5006073;28;20095;-72
2022/12/31 04:55:06;;;;;;;3.00;0.90;;;15.00;99.90;;;;;;4993821;28;20105;-72
2022/12/31 04:57:31;;;;;;;2.72;0.95;;;15.10;99.90;;;;;;5010416;28;20026;-73
2022/12/31 04:59:57;;;;;;;2.33;0.60;;;15.10;99.90;;;;;;4984937;28;20041;-72
2022/12/31 05:02:22;;;;;;;1.55;0.68;;;15.10;99.90;;;;;;5008824;28;20105;-72
2022/12/31 05:04:48;;;;;;;2.90;0.80;;;15.20;99.90;;;;;;5010218;28;20042;-72
2022/12/31 05:07:14;;;;;;;3.40;0.73;;;15.10;99.90;;;;;;5003041;28;20017;-72
2022/12/31 05:09:39;;;;;;;4.18;0.60;;;15.10;99.90;;;;;;5007064;28;20018;-73
2022/12/31 05:12:05;;;;;;;2.75;0.93;;;15.20;99.90;;;;;;5007985;28;20247;-72
2022/12/31 05:14:31;;;;;;;1.98;0.60;;;15.20;99.90;;;;;;5007511;28;20545;-73
2022/12/31 05:16:57;;;;;;;2.47;0.70;;;15.20;99.90;;;;;;5002837;28;20113;-73
2022/12/31 05:19:23;;;;;;;2.88;0.52;;;15.10;99.90;;;;;;5000460;28;20424;-72
2022/12/31 05:22:27;;;;;;;3.58;0.93;;;15.10;99.90;;;;;;5000851;28;20084;-72
2022/12/31 05:24:34;;;;;;;3.88;0.70;;;15.10;99.90;;;;;;5006547;28;20072;-72
2022/12/31 05:27:00;;;;;;;3.22;0.70;;;15.10;99.90;;;;;;4999360;28;20070;-72
2022/12/31 05:29:26;;;;;;;6.30;0.98;;;15.10;99.90;;;;;;5004513;28;20022;-72
2022/12/31 05:31:51;;;;;;;4.10;0.90;;;15.20;99.90;;;;;;5000675;28;20095;-72
2022/12/31 05:34:17;;;;;;;2.88;0.63;;;15.20;99.90;;;;;;5005068;28;20080;-73
2022/12/31 05:36:42;;;;;;;3.67;0.85;;;15.20;99.90;;;;;;5012128;28;20030;-72
2022/12/31 05:39:08;;;;;;;5.95;1.20;;;15.20;99.90;;;;;;5008796;28;20469;-72
2022/12/31 05:41:33;;;;;;;1.60;0.60;;;15.30;99.90;;;;;;5004725;28;20037;-73
2022/12/31 05:43:59;;;;;;;7.70;0.68;;;15.20;99.90;;;;;;5000041;28;20039;-72
2022/12/31 05:46:24;;;;;;;3.67;0.77;;;15.30;99.90;;;;;;5009451;28;20444;-72
2022/12/31 05:48:50;;;;;;;3.15;0.50;;;15.20;99.90;;;;;;5005050;28;20027;-73
2022/12/31 05:51:16;;;;;;;2.67;0.50;;;15.20;99.90;;;;;;5005148;28;20030;-72
2022/12/31 05:53:41;;;;;;;2.25;0.70;;;15.30;99.90;;;;;;5006676;28;20357;-72
2022/12/31 05:56:07;;;;;;;4.03;0.80;;;15.30;99.90;;;;;;5003393;28;20034;-72
2022/12/31 05:58:32;;;;;;;4.68;0.88;;;15.30;99.90;;;;;;5008400;28;20022;-72
2022/12/31 06:00:58;;;;;;;3.08;0.75;;;15.30;99.90;;;;;;5009583;28;20184;-73
2022/12/31 06:03:23;;;;;;;2.20;0.63;;;15.40;99.90;;;;;;5009142;28;20033;-73
2022/12/31 06:05:49;;;;;;;1.20;0.55;;;15.50;99.90;;;;;;5006202;28;20552;-72
2022/12/31 06:08:15;;;;;;;1.17;0.43;;;15.40;99.90;;;;;;5006101;28;20025;-72
2022/12/31 06:10:40;;;;;;;3.65;0.65;;;15.50;99.90;;;;;;5011537;28;20168;-72
2022/12/31 06:13:06;;;;;;;3.58;0.50;;;15.50;99.90;;;;;;5004187;28;20026;-72
2022/12/31 06:15:32;;;;;;;3.75;0.63;;;15.50;99.90;;;;;;5005445;28;20030;-72
2022/12/31 06:17:58;;;;;;;1.20;0.40;;;15.50;99.90;;;;;;5004962;28;20030;-72
2022/12/31 06:20:23;;;;;;;3.22;0.70;;;15.50;99.90;;;;;;4989743;28;20038;-72
2022/12/31 06:22:49;;;;;;;4.15;0.98;;;15.50;99.90;;;;;;5009592;28;20037;-73
2022/12/31 06:25:14;;;;;;;4.22;0.73;;;15.50;99.90;;;;;;5006491;28;20026;-72
2022/12/31 06:27:40;;;;;;;2.75;0.40;;;15.60;99.90;;;;;;5008734;28;20018;-72
2022/12/31 06:30:06;;;;;;;2.80;0.45;;;15.60;99.90;;;;;;5004998;28;20097;-72
2022/12/31 06:32:33;;;;;;;5.13;0.90;;;15.70;99.90;;;;;;5004719;28;20507;-72
2022/12/31 06:34:59;;;;;;;2.53;1.15;;;15.60;99.90;;;;;;5012154;28;20028;-72
2022/12/31 06:37:24;;;;;;;3.15;0.90;;;15.70;99.90;;;;;;5000570;28;20025;-72
2022/12/31 06:39:50;;;;;;;4.35;0.93;;;15.70;99.90;;;;;;4989284;28;20436;-72
2022/12/31 06:42:16;;;;;;;3.67;1.17;;;15.70;99.90;;;;;;4998535;28;20058;-73
2022/12/31 06:44:41;;;;;;;3.55;0.85;;;15.80;99.90;;;;;;5005406;28;20081;-72
2022/12/31 06:47:07;;;;;;;4.65;0.98;;;15.80;99.90;;;;;;5007810;28;20442;-72
2022/12/31 06:49:32;;;;;;;4.15;1.02;;;15.80;99.90;;;;;;5007597;28;21249;-72
2022/12/31 06:51:58;;;;;;;3.13;1.10;;;15.70;99.90;;;;;;5006188;28;20026;-73
2022/12/31 06:54:23;;;;;;;3.33;0.73;;;15.70;99.90;;;;;;5006566;28;20041;-72
2022/12/31 06:56:49;;;;;;;4.30;0.93;;;15.70;99.90;;;;;;4989979;28;20031;-73
2022/12/31 06:59:24;;;;;;;5.30;1.00;;;15.70;99.90;;;;;;5007306;28;20035;-72
2022/12/31 07:01:59;;;;;;;2.40;0.50;;;15.80;99.90;;;;;;5019938;28;20030;-72
2022/12/31 07:04:48;;;;;;;4.63;0.77;;;15.80;99.90;;;;;;5006427;28;20030;-72
2022/12/31 07:07:43;;;;;;;4.78;1.30;;;15.80;99.90;;;;;;5012048;28;20026;-72
2022/12/31 07:10:32;;;;;;;4.95;1.20;;;15.80;99.90;;;;;;4984381;28;20041;-72
2022/12/31 07:13:22;;;;;;;4.22;0.95;;;15.80;99.90;;;;;;5014880;28;20045;-73
2022/12/31 07:16:12;;;;;;;5.43;1.38;;;15.80;99.90;;;;;;4985907;28;20068;-72
2022/12/31 07:18:49;;;;;;;2.47;0.95;;;15.80;99.90;;;;;;5002651;28;20100;-72
2022/12/31 07:21:20;;;;;;;3.13;0.80;;;15.80;99.90;;;;;;5006596;28;20034;-73
2022/12/31 07:23:46;;;;;;;1.15;0.70;;;15.90;99.90;;;;;;5005056;28;20022;-73
2022/12/31 07:26:40;;;;;;;1.88;0.65;;;15.80;99.90;;;;;;5004590;28;20029;-72
2022/12/31 07:29:17;;;;;;;3.88;0.98;;;15.80;99.90;;;;;;4986294;28;20381;-72
2022/12/31 07:32:08;;;;;;;6.80;1.23;;;15.80;99.90;;;;;;4984590;28;20038;-72
2022/12/31 07:35:15;;;;;;;3.30;0.70;;;15.90;99.90;;;;;;5006466;28;20033;-72
2022/12/31 07:38:06;;;;;;;2.88;0.82;;;15.80;99.90;;;;;;4980736;28;20041;-73
2022/12/31 07:40:53;;;;;;;3.53;0.90;;;15.80;99.90;;;;;;4982599;28;20504;-72
2022/12/31 07:43:56;;;;;;;3.50;1.10;;;15.70;99.90;;;;;;5003542;28;20037;-72
2022/12/31 07:46:47;;;;;;;5.05;0.73;;;15.70;99.90;;;;;;5004101;28;20512;-72
2022/12/31 07:49:13;;;;;;;6.47;0.93;;;15.80;99.90;;;;;;4999770;28;20036;-72
2022/12/31 07:51:39;;;;;;;2.20;0.80;;;15.80;99.90;;;;;;5007009;28;20444;-72
2022/12/31 07:54:05;;;;;;;3.28;0.80;;;15.80;99.90;;;;;;5001728;28;20069;-72
2022/12/31 07:56:31;;;;;;;5.63;0.93;;;15.80;99.90;;;;;;5000970;28;20045;-72
2022/12/31 07:59:08;;;;;;;3.72;0.70;;;15.70;99.90;;;;;;5007398;28;20030;-73
2022/12/31 08:02:14;;;;;;;2.30;0.63;;;15.70;99.90;;;;;;5010527;28;20038;-73
2022/12/31 08:04:46;;;;;;;3.90;0.60;;;15.70;99.90;;;;;;5017622;28;20123;-72
2022/12/31 08:07:21;;;;;;;1.63;0.70;;;15.70;99.90;;;;;;5008381;28;20030;-72
2022/12/31 08:10:03;;;;;;;3.42;0.93;;;15.70;99.90;;;;;;5004710;28;20046;-72
2022/12/31 08:12:33;;;;;;;5.07;0.90;;;15.70;99.90;;;;;;4996681;28;20485;-72
2022/12/31 08:14:59;;;;;;;1.60;0.68;;;15.80;99.90;;;;;;5005823;28;20168;-72
2022/12/31 08:17:25;;;;;;;5.82;1.02;;;15.80;99.90;;;;;;5003865;28;20105;-72
2022/12/31 08:19:51;;;;;;;6.15;1.20;;;15.80;99.90;;;;;;4998662;28;20026;-73
2022/12/31 08:22:23;;;;;;;2.75;0.55;;;15.80;99.90;;;;;;5002509;28;20052;-73
2022/12/31 08:24:51;;;;;;;3.38;0.80;;;15.80;99.90;;;;;;5002768;28;20469;-73
2022/12/31 08:27:36;;;;;;;2.30;1.27;;;15.80;99.90;;;;;;4998319;28;20030;-72
2022/12/31 08:30:10;;;;;;;3.83;0.70;;;15.80;99.90;;;;;;4993838;28;20503;-73
2022/12/31 08:32:47;;;;;;;1.42;0.82;;;15.80;99.90;;;;;;5008394;28;20046;-73
2022/12/31 08:35:54;;;;;;;5.43;1.10;;;15.90;99.90;;;;;;5005365;28;20021;-73
2022/12/31 08:38:38;;;;;;;3.13;1.00;;;15.90;99.90;;;;;;4997469;28;20034;-73
2022/12/31 08:41:29;;;;;;;2.00;0.90;;;16.00;99.90;;;;;;5023439;28;20049;-73
2022/12/31 08:44:03;;;;;;;3.17;0.70;;;15.90;99.90;;;;;;5005357;28;20045;-73
2022/12/31 08:46:59;;;;;;;1.65;0.63;;;15.90;99.90;;;;;;5004382;28;20478;-72
2022/12/31 08:49:32;;;;;;;2.17;1.10;;;16.00;99.90;;;;;;5002674;28;20026;-73
2022/12/31 08:51:59;;;;;;;6.78;1.00;;;16.00;99.90;;;;;;5000862;28;20033;-73
2022/12/31 08:54:26;;;;;;;4.97;0.82;;;16.00;99.90;;;;;;5002893;28;20033;-72
2022/12/31 08:57:28;;;;;;;2.42;0.75;;;16.00;99.90;;;;;;5006846;28;20073;-73
2022/12/31 09:00:13;;;;;;;2.87;1.10;;;16.10;99.90;;;;;;5005158;28;20061;-72
2022/12/31 09:02:54;;;;;;;2.38;0.85;;;16.00;99.90;;;;;;4998088;28;20030;-73
2022/12/31 09:05:31;;;;;;;2.67;0.70;;;16.10;99.90;;;;;;5005091;28;20484;-72
2022/12/31 09:08:34;;;;;;;4.00;1.20;;;16.10;99.90;;;;;;5007161;28;20050;-73
2022/12/31 09:11:15;;;;;;;5.65;0.77;;;16.00;99.90;;;;;;4977125;28;20106;-73
2022/12/31 09:14:20;;;;;;;3.53;0.77;;;16.00;99.90;;;;;;4991690;28;20080;-73
2022/12/31 09:16:57;;;;;;;2.92;1.00;;;16.10;99.90;;;;;;5000170;28;20041;-73
2022/12/31 09:19:23;;;;;;;4.72;1.20;;;16.10;99.90;;;;;;5003425;28;20031;-73
2022/12/31 09:21:49;;;;;;;2.97;0.90;;;16.10;99.90;;;;;;5007564;28;20053;-72
2022/12/31 09:24:15;;;;;;;2.00;0.75;;;16.10;99.90;;;;;;4988674;28;20027;-73
2022/12/31 09:27:05;;;;;;;3.55;0.80;;;16.10;99.90;;;;;;4992546;28;20021;-73
2022/12/31 09:29:52;;;;;;;5.07;1.00;;;16.20;99.90;;;;;;5006086;28;20026;-73
2022/12/31 09:32:53;;;;;;;7.13;1.10;;;16.10;99.90;;;;;;5009000;28;20077;-73
2022/12/31 09:35:28;;;;;;;5.15;1.42;;;16.20;99.90;;;;;;4996847;28;20116;-73
2022/12/31 09:38:16;;;;;;;5.55;0.90;;;16.30;99.90;;;;;;5010620;28;20034;-73
2022/12/31 09:40:48;;;;;;;5.05;1.27;;;16.30;99.90;;;;;;5007053;28;20056;-73
2022/12/31 09:43:45;;;;;;;5.38;1.15;;;16.40;99.90;;;;;;4993379;28;20123;-73
2022/12/31 09:46:25;;;;;;;5.50;1.17;;;16.40;99.90;;;;;;5000629;28;20030;-73
2022/12/31 09:49:22;;;;;;;5.38;0.98;;;16.50;99.90;;;;;;5003682;28;20038;-73
2022/12/31 09:52:12;;;;;;;4.55;0.88;;;16.50;99.90;;;;;;5013282;28;20045;-73
2022/12/31 09:55:07;;;;;;;4.50;1.20;;;16.50;99.90;;;;;;5008916;28;20080;-73
2022/12/31 09:57:47;;;;;;;4.55;0.90;;;16.70;99.90;;;;;;4990964;28;20089;-73
2022/12/31 10:00:41;;;;;;;6.70;1.15;;;16.70;99.90;;;;;;5002882;28;20030;-73
2022/12/31 10:03:25;;;;;;;6.45;1.13;;;16.70;99.90;;;;;;4959116;28;20039;-74
2022/12/31 10:06:40;;;;;;;2.80;0.98;;;16.70;99.90;;;;;;5005555;28;20080;-73
2022/12/31 10:09:24;;;;;;;3.63;0.95;;;16.70;99.90;;;;;;4997898;28;20037;-73
2022/12/31 10:12:03;;;;;;;5.20;0.88;;;16.70;99.90;;;;;;5012758;28;20045;-73
2022/12/31 10:15:07;;;;;;;3.85;1.00;;;16.70;99.90;;;;;;4991148;28;20076;-72
2022/12/31 10:17:32;;;;;;;;;;;16.70;99.90;;;;;;5007105;28;20121;-73
2022/12/31 10:20:21;;;;;;;2.35;1.27;;;16.80;99.90;;;;;;4988546;28;20007;-72
2022/12/31 10:22:59;;;;;;;7.57;1.17;;;16.90;99.90;;;;;;4999542;28;20058;-73
2022/12/31 10:25:43;;;;;;;6.53;1.67;;;16.90;99.90;;;;;;5003304;28;20033;-73
2022/12/31 10:28:46;;;;;;;4.70;1.17;;;16.90;99.90;;;;;;5010364;28;20544;-73
2022/12/31 10:31:14;;;;;;;;;;;16.90;99.90;;;;;;5009405;28;20036;-73
2022/12/31 10:33:44;;;;;;;5.20;1.13;;;16.90;99.90;;;;;;4990798;28;19906;-73
2022/12/31 10:36:45;;;;;;;3.55;1.33;;;17.00;99.90;;;;;;5016233;28;20023;-73
2022/12/31 10:39:17;;;;;;;7.10;1.30;;;16.90;99.90;;;;;;5011507;28;20477;-73
2022/12/31 10:41:58;;;;;;;3.90;1.30;;;17.00;99.90;;;;;;5005604;28;20041;-72
2022/12/31 10:44:54;;;;;;;4.18;1.20;;;17.00;99.90;;;;;;5007965;28;20037;-73
2022/12/31 10:47:57;;;;;;;3.70;0.95;;;17.00;99.90;;;;;;5012113;28;20018;-73
2022/12/31 10:50:47;;;;;;;6.22;1.20;;;17.00;99.90;;;;;;5012006;28;20060;-73
2022/12/31 10:53:31;;;;;;;1.65;1.05;;;17.10;99.90;;;;;;5003010;28;20109;-73
2022/12/31 10:56:34;;;;;;;5.25;1.10;;;17.00;99.90;;;;;;5003392;28;20031;-73
2022/12/31 10:59:26;;;;;;;3.97;1.10;;;17.10;99.90;;;;;;5009424;28;20037;-73
2022/12/31 11:02:01;;;;;;;8.13;1.63;;;17.00;99.90;;;;;;5012733;28;20061;-73
2022/12/31 11:04:38;;;;;;;3.50;1.23;;;17.00;99.90;;;;;;4989075;28;20112;-73
2022/12/31 11:07:23;;;;;;;6.85;1.35;;;17.00;99.90;;;;;;4999856;28;20021;-73
2022/12/31 11:10:10;;;;;;;6.78;1.38;;;17.10;99.90;;;;;;4986264;28;20036;-73
2022/12/31 11:13:03;;;;;;;5.57;1.83;;;17.10;99.90;;;;;;5005421;28;20032;-74
2022/12/31 11:15:51;;;;;;;7.15;1.73;;;17.10;99.90;;;;;;5011041;28;20036;-73
2022/12/31 11:18:40;;;;;;;4.05;1.00;;;17.10;99.90;;;;;;5001577;28;20084;-73
2022/12/31 11:21:20;;;;;;;5.63;1.42;;;17.10;99.90;;;;;;4978098;28;20042;-73
2022/12/31 11:24:04;;;;;;;5.35;1.20;;;17.10;99.90;;;;;;5000681;28;20022;-74
2022/12/31 11:26:46;;;;;;;3.60;1.10;;;17.10;99.90;;;;;;5005152;28;20026;-73
2022/12/31 11:29:24;;;;;;;5.50;1.27;;;17.10;99.90;;;;;;5011203;28;20050;-73
2022/12/31 11:32:27;;;;;;;3.33;1.35;;;17.10;99.90;;;;;;5006709;28;20045;-73
2022/12/31 11:35:16;;;;;;;2.40;1.02;;;17.10;99.90;;;;;;5002629;28;20018;-74
2022/12/31 11:37:51;;;;;;;5.03;1.10;;;17.10;99.90;;;;;;5008095;28;20034;-74
2022/12/31 11:40:38;;;;;;;5.82;1.98;;;17.10;99.90;;;;;;4991951;28;20030;-77
2022/12/31 11:43:18;;;;;;;4.93;1.48;;;17.10;99.90;;;;;;5009426;28;20061;-74
2022/12/31 11:46:12;;;;;;;4.95;1.40;;;17.00;99.90;;;;;;5002680;28;20116;-74
2022/12/31 11:48:43;;;;;;;6.47;1.38;;;17.10;99.90;;;;;;5009860;28;20040;-75
2022/12/31 11:51:30;;;;;;;5.65;1.48;;;17.10;99.90;;;;;;5002672;28;20023;-74
2022/12/31 11:54:24;;;;;;;6.82;1.90;;;17.10;99.90;;;;;;5006965;28;20109;-75
2022/12/31 11:57:12;;;;;;;5.50;1.90;;;17.10;99.90;;;;;;5007686;28;20037;-73
2022/12/31 11:59:38;;;;;;;6.88;1.92;;;17.10;99.90;;;;;;5010517;28;20030;-73
2022/12/31 12:02:24;;;;;;;10.65;2.38;;;17.00;99.90;;;;;;5008788;28;20038;-73
2022/12/31 12:04:52;;;;;;;6.15;1.60;;;17.00;99.90;;;;;;5002320;28;20026;-73
2022/12/31 12:07:18;;;;;;;6.15;1.60;;;17.00;99.90;;;;;;5010011;28;20038;-72
2022/12/31 12:09:45;;;;;;;5.15;1.75;;;16.80;99.90;;;;;;5004247;28;20049;-72
2022/12/31 12:12:10;;;;;;;6.25;2.22;;;16.80;99.90;;;;;;5005994;28;20493;-75
2022/12/31 12:14:38;;;;;;;6.55;1.83;;;16.80;99.90;;;;;;4991241;28;20056;-73
2022/12/31 12:17:14;;;;;;;5.82;1.48;;;16.80;99.90;;;;;;5009690;28;20061;-73
2022/12/31 12:19:45;;;;;;;8.45;2.20;;;16.80;99.90;;;;;;5010250;28;20026;-73
2022/12/31 12:22:13;;;;;;;8.82;1.70;;;16.70;99.90;;;;;;4987443;28;20032;-72
2022/12/31 12:24:50;;;;;;;9.60;2.40;;;16.80;99.90;;;;;;5009373;28;20046;-73
2022/12/31 12:27:22;;;;;;;5.78;1.63;;;16.70;99.90;;;;;;5001531;28;20028;-72
2022/12/31 12:29:48;;;;;;;6.72;1.65;;;16.80;99.90;;;;;;5008495;28;20611;-73
2022/12/31 12:32:19;;;;;;;3.95;1.58;;;16.80;99.90;;;;;;5010652;28;20115;-74
2022/12/31 12:34:45;;;;;;;4.95;1.40;;;16.70;99.90;;;;;;5014263;28;20017;-75
2022/12/31 12:37:23;;;;;;;9.18;1.65;;;16.70;99.90;;;;;;5008964;28;20612;-75
2022/12/31 12:40:26;;;;;;;9.38;1.65;;;16.70;99.90;;;;;;5006936;28;20037;-74
2022/12/31 12:42:53;;;;;;;4.05;1.52;;;16.80;99.90;;;;;;4987257;28;20181;-76
2022/12/31 12:45:20;;;;;;;5.47;1.88;;;16.80;99.90;;;;;;5005924;28;20034;-75
2022/12/31 12:47:49;;;;;;;5.30;2.00;;;16.90;99.90;;;;;;5006709;28;20030;-76
2022/12/31 12:50:21;;;;;;;4.20;1.50;;;16.80;99.90;;;;;;5007203;28;20037;-75
2022/12/31 12:52:54;;;;;;;4.35;1.20;;;16.80;99.90;;;;;;5012512;28;20022;-76
2022/12/31 12:55:43;;;;;;;3.33;1.30;;;16.90;99.90;;;;;;5003432;28;20493;-76
2022/12/31 12:58:11;;;;;;;6.22;1.40;;;17.00;99.90;;;;;;5004825;28;20023;-75
2022/12/31 13:00:54;;;;;;;3.97;1.35;;;16.90;99.90;;;;;;5008644;28;20393;-75
2022/12/31 13:03:25;;;;;;;4.68;1.48;;;16.90;99.90;;;;;;5009086;28;20069;-75
2022/12/31 13:06:32;;;;;;;4.90;1.33;;;16.90;99.90;;;;;;5003156;28;20041;-75
2022/12/31 13:09:19;;;;;;;6.85;2.00;;;17.00;99.90;;;;;;4998919;28;20377;-76
2022/12/31 13:12:06;;;;;;;6.35;1.23;;;17.00;99.90;;;;;;4997725;28;20030;-77
2022/12/31 13:14:48;;;;;;;5.72;1.63;;;16.90;99.90;;;;;;5010525;28;20034;-76
2022/12/31 13:17:50;;;;;;;5.57;1.37;;;17.00;99.90;;;;;;4995798;28;20572;-76
2022/12/31 13:20:26;;;;;;;4.25;1.40;;;16.90;99.90;;;;;;5003250;28;20354;-74
2022/12/31 13:23:22;;;;;;;7.32;1.67;;;17.00;99.90;;;;;;5004917;28;20034;-74
2022/12/31 13:25:59;;;;;;;8.45;1.73;;;16.90;99.90;;;;;;4998619;28;20026;-74
2022/12/31 13:28:26;;;;;;;9.07;1.85;;;16.70;99.90;;;;;;5001446;28;20474;-73
2022/12/31 13:31:01;;;;;;;12.60;2.00;;;16.80;99.90;;;;;;5003177;28;20117;-75
2022/12/31 13:33:51;;;;;;;7.18;2.15;;;16.90;99.90;;;;;;4993643;28;20076;-74
2022/12/31 13:36:20;;;;;;;6.00;1.60;;;16.70;99.90;;;;;;5014035;28;20041;-75
2022/12/31 13:38:50;;;;;;;9.93;2.00;;;16.80;99.90;;;;;;5000745;28;20031;-75
2022/12/31 13:41:30;;;;;;;10.88;2.38;;;16.70;99.90;;;;;;4999516;28;20065;-75